Alpine, CA

2:41 PM PDT on October 01, 2014 (GMT -0700)
Alpine: Rancho Palo Verde | Change Station
CLOSE
Current Station
Personal Weather Station
Location: Alpine, CA
Elevation: 2015 ft
Nearby Weather Stations
Active Advisory: Heat Advisory

Elev 2015 ft 32.81 °N, 116.76 °W | Updated 17 seconds ago

Clear
Clear
85.5 °F
Feels Like 86 °F
N
7.0
Wind Variable Wind from WNW
Gusts 9.0 mph

Today
High -- | Low -- °F
--% Chance of Precip.
Yesterday
High -- | Low -- °F
Precip. -- in
6:41 AM 6:31 PM
Waxing Crescent, 51% visible
Pressure 29.78 in
Visibility 10.0 miles
Clouds Clear
Heat Index 86 °F
Dew Point 61 °F
Humidity 44%
Rainfall 0.00 in
Snow Depth 0 in , 0 in , 0 in
UV 6 out of 12
Pollen 5.40 out of 12
Ozone Moderate
PM2.5 Good
Flu Activity Not available.
METAR KSEE 012135Z AUTO 22007KT 10SM CLR 28/14 A2978 RMK AO2

More Conditions Fewer Conditions

Pressure 29.78 in
Visibility 10.0 miles
Clouds Clear
Heat Index 86 °F
Dew Point 61 °F
Humidity 44%
Rainfall 0.00 in
Snow Depth 0 in , 0 in , 0 in
UV 6 out of 12
Pollen 5.40 out of 12
Ozone Moderate
PM2.5 Good
Flu Activity Not available.
METAR KSEE 012135Z AUTO 22007KT 10SM CLR 28/14 A2978 RMK AO2

More Conditions Fewer Conditions

10-Day Weather Forecast

Almanac

Astronomy

Oct. 01, 2014 Rise Set
Actual Time 6:41 AM PDT 6:31 PM PDT
Civil Twilight 6:16 AM PDT 6:56 PM PDT
Nautical Twilight 5:48 AM PDT 7:24 PM PDT
Astronomical Twilight 5:19 AM PDT 7:53 PM PDT
Moon 1:32 PM PDT No Moon Set
Length of Visible Light 12h 39m
Length of Day
11h 50m
Tomorrow will be 2m 0s shorter.
Waxing Crescent, 51% of the Moon is Illuminated
Today
Waxing Crescent
Oct 8
Full
Oct 15
Last Quarter
Oct 23
New
Oct 30
First Quarter

Today's Extremes

State Highs State Lows

Community

WunderPhotos

Upload Photos

1,758,057 photos uploaded!

WunderBlogs® & News

By Dr. Jeff Masters
Director of Meteorology, Weather Underground
By Kari Strenfel
Meteorologist, Weather Underground
By Christopher C. Burt
Weather Historian, Weather Underground
October 1, 2014
October 1, 2014
October 1, 2014

Nearby

Air Quality

  Air Quality AQ Index Pollutant
Yesterday Moderate
OZONE
Yesterday Good
PM2.5
Current Moderate
OZONE
Current Good
PM2.5
Wednesday Moderate
OZONE
Wednesday Good
PM2.5
Thursday Moderate
OZONE
Thursday Good
PM2.5

Snow Depth

Station Depth Elevation
Burnside Lake 0 in 8139 ft
Rubicon #2 0 in 7500 ft
Leavitt Meadows 0 in 7200 ft
Adin Mountain 0 in 6200 ft
CSS Lab 3 in 6900 ft

Earthquake Activity

City Distance Mag. Time & Date
Avalon, California 92 miles 2.6 1:28 PM PDT
2014-09-30
Minimum magnitude displayed is 2.5.

Coastal Water Temperatures

Place Temperature
La Jolla, CA 72.0 °F
San Diego, CA 73.0 °F

Nearby Weather Stations